createdAt,value
2022-08-12T00:00:55.593Z,17.13
2022-08-12T00:02:09.275Z,17.13
2022-08-12T00:02:56.637Z,17.13
2022-08-12T00:03:57.333Z,17.14
2022-08-12T00:04:57.528Z,17.14
2022-08-12T00:06:10.130Z,17.07
2022-08-12T00:06:58.624Z,17.12
2022-08-12T00:07:59.272Z,17.12
2022-08-12T00:09:00.463Z,17.05
2022-08-12T00:10:00.960Z,17.09
2022-08-12T00:11:12.883Z,17.01
2022-08-12T00:12:01.095Z,17.07
2022-08-12T00:13:02.211Z,17.02
2022-08-12T00:14:02.410Z,17.04
2022-08-12T00:15:02.732Z,17.05
2022-08-12T00:16:03.951Z,17.1
2022-08-12T00:17:04.162Z,17.05
2022-08-12T00:18:04.378Z,17.02
2022-08-12T00:19:04.669Z,16.98
2022-08-12T00:20:05.870Z,16.98
2022-08-12T00:21:06.588Z,16.95
2022-08-12T00:22:07.924Z,16.97
2022-08-12T00:23:07.820Z,16.99
2022-08-12T00:24:09.667Z,16.92
2022-08-12T00:25:09.269Z,16.99
2022-08-12T00:26:29.711Z,16.94
2022-08-12T00:27:11.204Z,16.94
2022-08-12T00:28:10.865Z,16.94
2022-08-12T00:29:12.459Z,16.84
2022-08-12T00:30:12.411Z,16.86
2022-08-12T00:31:12.996Z,16.82
2022-08-12T00:32:57.455Z,16.82
2022-08-12T00:33:17.305Z,16.83
2022-08-12T00:34:18.334Z,16.82
2022-08-12T00:35:18.868Z,16.76
2022-08-12T00:36:43.392Z,16.72
2022-08-12T00:37:20.235Z,16.65
2022-08-12T00:38:19.486Z,16.72
2022-08-12T00:39:19.860Z,16.62
2022-08-12T00:40:19.902Z,16.59
2022-08-12T00:41:20.691Z,16.59
2022-08-12T00:42:20.589Z,16.64
2022-08-12T00:43:21.283Z,16.5
2022-08-12T00:44:26.033Z,16.5
2022-08-12T00:45:22.822Z,16.58
2022-08-12T00:46:23.312Z,16.47
2022-08-12T00:50:25.817Z,16.46
2022-08-12T00:51:26.519Z,16.43
2022-08-12T00:52:27.111Z,16.4
2022-08-12T00:53:27.303Z,16.34
2022-08-12T00:54:32.638Z,16.39
2022-08-12T00:55:28.261Z,16.4
2022-08-12T00:56:29.483Z,16.36
2022-08-12T00:57:29.703Z,16.32
2022-08-12T00:58:29.896Z,16.34
2022-08-12T00:59:30.217Z,16.34
2022-08-12T01:00:31.413Z,16.31
2022-08-12T01:02:12.588Z,16.26
2022-08-12T01:02:32.311Z,16.32
2022-08-12T01:03:32.528Z,16.26
2022-08-12T01:04:34.675Z,16.28
2022-08-12T01:05:33.001Z,16.28
2022-08-12T01:06:33.206Z,16.29
2022-08-12T01:07:33.550Z,16.28
2022-08-12T01:08:34.759Z,16.31
2022-08-12T01:09:34.679Z,16.28
2022-08-12T01:10:38.352Z,16.21
2022-08-12T01:11:35.353Z,16.24
2022-08-12T01:12:35.884Z,16.17
2022-08-12T01:13:36.398Z,16.13
2022-08-12T01:14:37.662Z,16.22
2022-08-12T01:15:38.360Z,16.18
2022-08-12T01:16:38.692Z,16.1
2022-08-12T01:17:39.299Z,16.21
2022-08-12T01:18:39.638Z,16.13
2022-08-12T01:19:40.536Z,16.16
2022-08-12T01:20:41.476Z,16.17
2022-08-12T01:21:42.052Z,16.12
2022-08-12T01:22:42.327Z,16.24
2022-08-12T01:23:42.824Z,16.12
2022-08-12T01:24:43.315Z,16.17
2022-08-12T01:26:02.230Z,16.18
2022-08-12T01:26:45.497Z,16.18
2022-08-12T01:27:44.697Z,16.13
2022-08-12T01:28:44.899Z,16.21
2022-08-12T01:29:44.425Z,16.13
2022-08-12T01:30:45.652Z,16.13
2022-08-12T01:31:45.942Z,16.18
2022-08-12T01:32:47.026Z,16.13
2022-08-12T01:33:47.241Z,16.16
2022-08-12T01:34:48.440Z,16.18
2022-08-12T01:36:08.944Z,16.17
2022-08-12T01:36:49.187Z,16.13
2022-08-12T01:37:49.819Z,16.03
2022-08-12T01:38:50.754Z,16.08
2022-08-12T01:40:47.214Z,16
2022-08-12T01:41:05.110Z,16.05
2022-08-12T01:42:05.713Z,16.06
2022-08-12T01:43:06.360Z,16
2022-08-12T01:44:06.853Z,16.02
2022-08-12T01:45:07.351Z,16.06
2022-08-12T01:46:07.564Z,15.96
2022-08-12T01:47:08.053Z,15.9
2022-08-12T01:48:10.739Z,16
2022-08-12T01:49:08.657Z,15.94
2022-08-12T01:50:09.293Z,16
2022-08-12T01:52:16.160Z,15.9
2022-08-12T01:53:10.167Z,16
2022-08-12T01:54:10.791Z,15.96
2022-08-12T01:55:10.408Z,16
2022-08-12T01:56:11.011Z,16.03
2022-08-12T01:57:11.636Z,15.94
2022-08-12T01:58:11.788Z,15.99
2022-08-12T01:59:18.102Z,15.9
2022-08-12T02:00:12.624Z,15.96
2022-08-12T02:01:13.346Z,15.99
2022-08-12T02:02:13.434Z,15.99
2022-08-12T02:03:14.721Z,15.91
2022-08-12T02:04:14.913Z,15.94
2022-08-12T02:05:14.833Z,15.96
2022-08-12T02:06:15.753Z,15.87
2022-08-12T02:07:16.241Z,15.88
2022-08-12T02:08:16.436Z,15.85
2022-08-12T02:09:16.780Z,15.84
2022-08-12T02:10:56.180Z,15.83
2022-08-12T02:11:19.113Z,15.75
2022-08-12T02:12:28.717Z,15.84
2022-08-12T02:13:55.952Z,15.83
2022-08-12T02:14:56.144Z,15.83
2022-08-12T02:15:55.779Z,15.81
2022-08-12T02:16:56.896Z,15.8
2022-08-12T02:18:02.160Z,15.73
2022-08-12T02:18:58.661Z,15.83
2022-08-12T02:19:58.714Z,15.75
2022-08-12T02:20:58.911Z,15.67
2022-08-12T02:21:59.125Z,15.72
2022-08-12T02:22:59.727Z,15.55
2022-08-12T02:24:00.385Z,15.65
2022-08-12T02:25:00.881Z,15.52
2022-08-12T02:26:01.506Z,15.55
2022-08-12T02:27:01.720Z,15.52
2022-08-12T02:28:08.386Z,15.48
2022-08-12T02:29:02.629Z,15.51
2022-08-12T02:30:02.978Z,15.43
2022-08-12T02:31:04.174Z,15.44
2022-08-12T02:32:04.662Z,15.39
2022-08-12T02:33:05.159Z,15.43
2022-08-12T02:34:05.753Z,15.41
2022-08-12T02:35:05.993Z,15.32
2022-08-12T02:36:06.486Z,15.35
2022-08-12T02:37:09.700Z,15.17
2022-08-12T02:38:07.612Z,15.29
2022-08-12T02:39:07.806Z,15.12
2022-08-12T02:40:12.534Z,15.22
2022-08-12T02:41:08.479Z,15.15
2022-08-12T02:42:09.375Z,15.14
2022-08-12T02:43:09.877Z,15.11
2022-08-12T02:44:09.873Z,15.19
2022-08-12T02:45:10.367Z,15.15
2022-08-12T02:46:15.314Z,15.12
2022-08-12T02:48:01.323Z,15.15
2022-08-12T02:48:18.631Z,15.05
2022-08-12T02:49:19.122Z,15.12
2022-08-12T02:50:20.039Z,15.05
2022-08-12T02:51:21.127Z,15.07
2022-08-12T02:52:20.743Z,15
2022-08-12T02:53:22.236Z,15.04
2022-08-12T02:54:22.407Z,15
2022-08-12T02:55:39.994Z,15.05
2022-08-12T02:56:23.182Z,15.04
2022-08-12T02:57:23.374Z,15.07
2022-08-12T02:58:33.894Z,15.08
2022-08-12T02:59:25.232Z,15.02
2022-08-12T03:00:25.837Z,15
2022-08-12T03:01:26.297Z,15.14
2022-08-12T03:02:26.441Z,15.05
2022-08-12T03:03:26.933Z,15.05
2022-08-12T03:04:27.760Z,15.17
2022-08-12T03:05:44.279Z,15.04
2022-08-12T03:06:28.883Z,15
2022-08-12T03:08:00.410Z,15.05
2022-08-12T03:08:39.439Z,15.02
2022-08-12T03:10:18.001Z,15.04
2022-08-12T03:10:56.737Z,15.07
2022-08-12T03:11:55.010Z,14.99
2022-08-12T03:12:56.644Z,15.07
2022-08-12T03:13:54.913Z,15.05
2022-08-12T03:14:55.375Z,15.1
2022-08-12T03:15:55.298Z,14.9
2022-08-12T03:16:55.943Z,15
2022-08-12T03:18:34.264Z,14.81
2022-08-12T03:18:56.177Z,14.87
2022-08-12T03:20:16.279Z,14.66
2022-08-12T03:20:57.757Z,14.56
2022-08-12T03:22:14.715Z,14.4
2022-08-12T03:22:58.897Z,14.36
2022-08-12T03:23:59.398Z,14.34
2022-08-12T03:24:59.966Z,14.31
2022-08-12T03:26:00.178Z,14.22
2022-08-12T03:27:05.789Z,14.23
2022-08-12T03:28:00.999Z,14.13
2022-08-12T03:29:02.020Z,14.08
2022-08-12T03:30:01.938Z,14.01
2022-08-12T03:31:03.173Z,13.91
2022-08-12T03:32:03.366Z,13.97
2022-08-12T03:33:04.187Z,13.83
2022-08-12T03:34:08.083Z,13.86
2022-08-12T03:35:05.072Z,13.86
2022-08-12T03:36:06.334Z,13.79
2022-08-12T03:37:06.251Z,13.76
2022-08-12T03:38:11.800Z,13.79
2022-08-12T03:39:07.384Z,13.73
2022-08-12T03:40:08.222Z,13.79
2022-08-12T03:41:08.539Z,13.71
2022-08-12T03:42:09.038Z,13.73
2022-08-12T03:43:12.825Z,13.7
2022-08-12T03:44:10.733Z,13.64
2022-08-12T03:45:11.235Z,13.64
2022-08-12T03:46:12.165Z,13.75
2022-08-12T03:47:13.357Z,13.64
2022-08-12T03:48:19.591Z,13.68
2022-08-12T03:49:14.204Z,13.64
2022-08-12T03:50:15.394Z,13.62
2022-08-12T03:51:15.884Z,13.64
2022-08-12T03:52:16.496Z,13.61
2022-08-12T03:53:17.137Z,13.62
2022-08-12T03:54:18.354Z,13.6
2022-08-12T03:55:22.530Z,13.78
2022-08-12T03:56:19.430Z,13.73
2022-08-12T03:57:20.082Z,13.75
2022-08-12T03:58:21.574Z,13.8
2022-08-12T03:59:22.069Z,13.82
2022-08-12T04:00:30.372Z,13.83
2022-08-12T04:01:22.899Z,13.85
2022-08-12T04:02:23.040Z,13.86
2022-08-12T04:03:23.937Z,13.91
2022-08-12T04:04:24.152Z,13.8
2022-08-12T04:05:56.805Z,13.97
2022-08-12T04:06:41.567Z,13.93
2022-08-12T04:07:25.777Z,13.98
2022-08-12T04:08:26.529Z,14.01
2022-08-12T04:09:26.469Z,14
2022-08-12T04:10:27.391Z,14.01
2022-08-12T04:11:32.663Z,14.01
2022-08-12T04:12:33.555Z,14
2022-08-12T04:13:29.473Z,14.07
2022-08-12T04:14:30.090Z,14.07
2022-08-12T04:15:31.378Z,14.05
2022-08-12T04:16:34.785Z,13.97
2022-08-12T04:17:31.993Z,14.01
2022-08-12T04:18:32.888Z,14.03
2022-08-12T04:19:33.379Z,14.01
2022-08-12T04:20:34.985Z,14.01
2022-08-12T04:21:33.927Z,14.12
2022-08-12T04:22:34.319Z,14.01
2022-08-12T04:23:34.386Z,14.11
2022-08-12T04:24:35.124Z,14.03
2022-08-12T04:25:34.923Z,14.04
2022-08-12T04:26:35.537Z,14.04
2022-08-12T04:27:35.651Z,14.03
2022-08-12T04:28:36.844Z,14.04
2022-08-12T04:30:38.624Z,14.07
2022-08-12T04:30:55.240Z,14.07
2022-08-12T04:31:56.522Z,14.12
2022-08-12T04:32:57.982Z,14.08
2022-08-12T04:33:57.877Z,14.04
2022-08-12T04:34:58.375Z,14.11
2022-08-12T04:35:58.098Z,14.15
2022-08-12T04:36:59.594Z,14.11
2022-08-12T04:38:05.530Z,14.15
2022-08-12T04:39:05.478Z,14.12
2022-08-12T04:40:01.568Z,14.13
2022-08-12T04:41:02.161Z,14.15
2022-08-12T04:42:04.768Z,14.2
2022-08-12T04:43:03.968Z,14.16
2022-08-12T04:44:12.545Z,14.13
2022-08-12T04:45:19.439Z,14.22
2022-08-12T04:46:13.478Z,14.23
2022-08-12T04:47:14.942Z,14.2
2022-08-12T04:48:16.293Z,14.19
2022-08-12T04:49:15.633Z,14.23
2022-08-12T04:50:41.506Z,14.25
2022-08-12T04:51:16.113Z,14.22
2022-08-12T04:52:17.043Z,14.2
2022-08-12T04:53:18.051Z,14.13
2022-08-12T04:54:23.533Z,14.05
2022-08-12T04:55:18.770Z,14.04
2022-08-12T04:56:19.471Z,14.13
2022-08-12T04:57:20.171Z,14.03
2022-08-12T04:58:30.224Z,14.11
2022-08-12T04:59:21.442Z,14.12
2022-08-12T05:00:21.999Z,14.15
2022-08-12T05:01:22.625Z,14.16
2022-08-12T05:02:27.737Z,14.07
2022-08-12T05:03:24.374Z,14.11
2022-08-12T05:04:25.403Z,14.16
2022-08-12T05:05:26.318Z,14.18
2022-08-12T05:06:33.522Z,14.25
2022-08-12T05:07:33.727Z,14.19
2022-08-12T05:08:34.109Z,14.16
2022-08-12T05:10:06.697Z,14.23
2022-08-12T05:10:41.191Z,14.25
2022-08-12T05:11:35.095Z,14.25
2022-08-12T05:12:36.202Z,14.25
2022-08-12T05:13:36.819Z,14.44
2022-08-12T05:14:42.935Z,14.36
2022-08-12T05:16:09.346Z,14.37
2022-08-12T05:17:14.980Z,14.37
2022-08-12T05:18:29.711Z,14.44
2022-08-12T05:19:24.353Z,14.45
2022-08-12T05:20:15.121Z,14.49
2022-08-12T05:21:14.462Z,14.53
2022-08-12T05:22:15.961Z,14.61
2022-08-12T05:23:19.430Z,14.52
2022-08-12T05:24:16.329Z,14.63
2022-08-12T05:25:18.997Z,14.63
2022-08-12T05:26:17.143Z,14.62
2022-08-12T05:27:17.425Z,14.7
2022-08-12T05:28:18.348Z,14.66
2022-08-12T05:30:14.428Z,14.77
2022-08-12T05:30:31.352Z,14.74
2022-08-12T05:31:53.193Z,14.77
2022-08-12T05:32:33.388Z,14.73
2022-08-12T05:33:34.384Z,14.85
2022-08-12T05:34:34.882Z,14.77
2022-08-12T05:35:35.076Z,14.77
2022-08-12T05:36:35.291Z,14.87
2022-08-12T05:37:35.313Z,14.89
2022-08-12T05:38:36.232Z,14.93
2022-08-12T05:39:37.057Z,14.87
2022-08-12T05:40:37.103Z,14.92
2022-08-12T05:41:38.046Z,14.99
2022-08-12T05:42:40.803Z,14.86
2022-08-12T05:43:38.812Z,14.93
2022-08-12T05:44:39.595Z,14.96
2022-08-12T05:45:45.221Z,14.94
2022-08-12T05:46:40.829Z,14.96
2022-08-12T05:48:00.249Z,14.99
2022-08-12T05:49:00.747Z,14.99
2022-08-12T05:50:01.492Z,15.04
2022-08-12T05:51:02.095Z,15.11
2022-08-12T05:52:02.596Z,15.17
2022-08-12T05:53:03.208Z,15.18
2022-08-12T05:54:05.140Z,15.19
2022-08-12T05:55:03.785Z,15.23
2022-08-12T05:56:05.409Z,15.19
2022-08-12T05:57:06.335Z,15.23
2022-08-12T05:58:06.759Z,15.33
2022-08-12T05:59:07.381Z,15.29
2022-08-12T06:00:07.767Z,15.32
2022-08-12T06:02:18.130Z,15.23
2022-08-12T06:02:35.233Z,15.29
2022-08-12T06:03:35.608Z,15.3
2022-08-12T06:04:36.541Z,15.23
2022-08-12T06:05:55.921Z,15.23
2022-08-12T06:06:40.307Z,15.32
2022-08-12T06:08:07.612Z,15.35
2022-08-12T06:08:55.602Z,15.37
2022-08-12T06:09:56.225Z,15.45
2022-08-12T06:10:57.235Z,15.48
2022-08-12T06:12:11.577Z,15.59
2022-08-12T06:12:58.527Z,15.75
2022-08-12T06:14:00.933Z,15.73
2022-08-12T06:14:59.704Z,15.73
2022-08-12T06:16:00.925Z,15.88
2022-08-12T06:17:01.143Z,15.83
2022-08-12T06:18:01.635Z,15.88
2022-08-12T06:19:02.311Z,15.96
2022-08-12T06:20:34.831Z,16.05
2022-08-12T06:21:02.897Z,16.05
2022-08-12T06:22:03.407Z,16.18
2022-08-12T06:23:03.316Z,16.21
2022-08-12T06:24:04.712Z,16.28
2022-08-12T06:25:04.307Z,16.31
2022-08-12T06:26:04.527Z,16.37
2022-08-12T06:27:04.744Z,16.44
2022-08-12T06:28:12.962Z,16.55
2022-08-12T06:29:05.718Z,16.61
2022-08-12T06:30:38.252Z,16.57
2022-08-12T06:31:32.808Z,16.62
2022-08-12T06:32:35.325Z,16.73
2022-08-12T06:35:50.450Z,16.82
2022-08-12T06:36:10.967Z,16.84
2022-08-12T06:37:11.994Z,16.87
2022-08-12T06:38:12.430Z,16.97
2022-08-12T06:39:20.993Z,16.8
2022-08-12T06:40:13.813Z,16.82
2022-08-12T06:41:14.696Z,16.97
2022-08-12T06:42:38.948Z,16.99
2022-08-12T06:43:15.964Z,17.04
2022-08-12T06:44:15.878Z,17.12
2022-08-12T06:45:18.270Z,17.17
2022-08-12T06:46:17.390Z,17.24
2022-08-12T06:47:17.600Z,17.19
2022-08-12T06:48:17.224Z,17.32
2022-08-12T06:49:19.311Z,17.37
2022-08-12T06:50:18.810Z,17.41
2022-08-12T06:51:18.933Z,17.49
2022-08-12T06:52:19.557Z,17.44
2022-08-12T06:53:19.896Z,17.37
2022-08-12T06:54:36.867Z,17.42
2022-08-12T06:55:21.081Z,17.41
2022-08-12T06:56:20.999Z,17.42
2022-08-12T06:58:16.327Z,17.52
2022-08-12T06:59:14.232Z,17.65
2022-08-12T07:00:14.431Z,17.69
2022-08-12T07:01:15.355Z,17.76
2022-08-12T07:02:15.658Z,17.98
2022-08-12T07:03:28.787Z,18.27
2022-08-12T07:04:42.001Z,18.68
2022-08-12T07:05:16.669Z,18.74
2022-08-12T07:06:17.176Z,19.07
2022-08-12T07:07:17.677Z,19.32
2022-08-12T07:08:17.885Z,19.52
2022-08-12T07:10:08.828Z,19.67
2022-08-12T07:10:26.194Z,19.78
2022-08-12T07:11:26.391Z,19.97
2022-08-12T07:12:28.913Z,20.11
2022-08-12T07:13:28.732Z,20.33
2022-08-12T07:14:27.614Z,20.75
2022-08-12T07:15:28.377Z,20.83
2022-08-12T07:16:28.358Z,20.86
2022-08-12T07:17:28.503Z,21.05
2022-08-12T07:18:28.432Z,21.14
2022-08-12T07:19:45.652Z,21.25
2022-08-12T07:20:56.742Z,21.04
2022-08-12T07:22:08.090Z,20.95
2022-08-12T07:22:55.823Z,21.01
2022-08-12T07:23:56.650Z,20.92
2022-08-12T07:24:57.578Z,20.98
2022-08-12T07:26:04.431Z,20.88
2022-08-12T07:26:59.663Z,20.95
2022-08-12T07:27:59.899Z,20.92
2022-08-12T07:29:00.975Z,20.74
2022-08-12T07:30:10.378Z,20.63
2022-08-12T07:31:02.037Z,20.63
2022-08-12T07:32:03.044Z,20.59
2022-08-12T07:33:07.439Z,20.63
2022-08-12T07:34:04.740Z,20.59
2022-08-12T07:35:06.009Z,20.59
2022-08-12T07:36:05.950Z,20.59
2022-08-12T07:37:09.514Z,20.77
2022-08-12T07:38:07.090Z,20.78
2022-08-12T07:39:11.292Z,20.86
2022-08-12T07:40:07.963Z,20.95
2022-08-12T07:41:16.257Z,21.04
2022-08-12T07:42:09.466Z,21.07
2022-08-12T07:43:09.913Z,21.13
2022-08-12T07:44:10.655Z,21.15
2022-08-12T07:45:10.859Z,21.17
2022-08-12T07:46:11.063Z,21.26
2022-08-12T07:47:13.268Z,21.15
2022-08-12T07:48:11.333Z,21.25
2022-08-12T07:49:12.260Z,21.26
2022-08-12T07:50:12.934Z,21.25
2022-08-12T07:51:25.880Z,21.15
2022-08-12T07:52:13.858Z,21.2
2022-08-12T07:53:14.900Z,21.15
2022-08-12T07:54:15.406Z,21.22
2022-08-12T07:55:16.329Z,21.32
2022-08-12T07:56:16.253Z,21.35
2022-08-12T07:57:16.461Z,21.45
2022-08-12T07:58:17.382Z,21.48
2022-08-12T07:59:17.887Z,21.63
2022-08-12T08:00:18.851Z,21.6
2022-08-12T08:01:18.688Z,21.72
2022-08-12T08:02:27.310Z,21.7
2022-08-12T08:03:20.131Z,21.8
2022-08-12T08:04:24.641Z,21.74
2022-08-12T08:05:20.696Z,21.77
2022-08-12T08:06:25.631Z,21.89
2022-08-12T08:07:21.853Z,21.85
2022-08-12T08:08:22.177Z,21.89
2022-08-12T08:09:23.406Z,21.99
2022-08-12T08:10:23.327Z,21.84
2022-08-12T08:11:23.855Z,22
2022-08-12T08:12:26.042Z,21.99
2022-08-12T08:13:24.786Z,22.01
2022-08-12T08:14:25.706Z,22.08
2022-08-12T08:16:02.806Z,22.14
2022-08-12T08:16:26.553Z,22.19
2022-08-12T08:17:27.751Z,22.18
2022-08-12T08:18:32.782Z,22.26
2022-08-12T08:19:29.373Z,22.38
2022-08-12T08:20:29.686Z,22.38
2022-08-12T08:21:30.609Z,22.33
2022-08-12T08:22:47.368Z,22.31
2022-08-12T08:23:46.975Z,22.34
2022-08-12T08:24:44.627Z,22.25
2022-08-12T08:25:45.558Z,22.18
2022-08-12T08:26:46.705Z,22.19
2022-08-12T08:27:46.638Z,22.23
2022-08-12T08:28:47.847Z,22.18
2022-08-12T08:29:48.125Z,22.19
2022-08-12T08:30:51.167Z,22.3
2022-08-12T08:31:51.353Z,22.23
2022-08-12T08:32:48.580Z,22.16
2022-08-12T08:35:01.399Z,22.28
2022-08-12T08:35:55.416Z,22.23
2022-08-12T08:36:56.744Z,22.07
2022-08-12T08:37:58.298Z,22.04
2022-08-12T08:39:03.744Z,22.1
2022-08-12T08:39:56.397Z,22.12
2022-08-12T08:40:56.874Z,22.51
2022-08-12T08:42:25.634Z,22.96
2022-08-12T08:42:57.868Z,23.08
2022-08-12T08:43:59.027Z,23.47
2022-08-12T08:45:04.213Z,23.94
2022-08-12T08:46:00.418Z,24.21
2022-08-12T08:47:00.920Z,24.31
2022-08-12T08:48:05.652Z,24.18
2022-08-12T08:49:05.333Z,24.16
2022-08-12T08:50:01.976Z,24.29
2022-08-12T08:51:10.436Z,24.19
2022-08-12T08:52:02.087Z,24.07
2022-08-12T08:53:02.716Z,23.91
2022-08-12T08:54:03.636Z,23.92
2022-08-12T08:55:04.261Z,23.96
2022-08-12T08:56:13.400Z,23.95
2022-08-12T08:57:05.392Z,23.91
2022-08-12T08:58:05.602Z,23.96
2022-08-12T08:59:05.236Z,24.01
2022-08-12T09:00:06.742Z,24.1
2022-08-12T09:02:09.166Z,24.48
2022-08-12T09:05:14.745Z,25.14
2022-08-12T09:06:17.458Z,25.61
2022-08-12T09:08:19.316Z,26.13
2022-08-12T09:08:48.322Z,26.19
2022-08-12T09:25:26.351Z,27.44
2022-08-12T09:29:17.770Z,27.58
2022-08-12T09:30:48.036Z,27.41
2022-08-12T09:32:56.790Z,27
2022-08-12T09:34:43.928Z,26.93
2022-08-12T09:36:05.800Z,27.1
2022-08-12T09:37:22.824Z,27.1
2022-08-12T09:38:30.015Z,27.04
2022-08-12T09:41:02.088Z,26.76
2022-08-12T09:43:18.590Z,27.07
2022-08-12T09:44:44.845Z,27.1
2022-08-12T09:46:35.049Z,27.41
2022-08-12T09:47:35.339Z,27.73
2022-08-12T09:48:36.519Z,27.93
2022-08-12T09:49:30.418Z,28.08
2022-08-12T09:50:31.159Z,27.82
2022-08-12T09:51:44.651Z,27.71
2022-08-12T09:52:42.105Z,27.82
2022-08-12T09:53:41.847Z,27.83
2022-08-12T09:54:53.872Z,27.72
2022-08-12T09:59:05.116Z,27.47
2022-08-12T10:01:15.095Z,27.67
2022-08-12T10:04:05.710Z,28.19
2022-08-12T10:04:52.206Z,28.43
2022-08-12T10:06:57.697Z,28.75
2022-08-12T10:07:40.961Z,28.82
2022-08-12T10:08:33.187Z,28.67
2022-08-12T10:10:03.212Z,28.2
2022-08-12T10:10:42.709Z,28.1
2022-08-12T10:12:33.176Z,28.1
2022-08-12T10:13:40.557Z,28.22
2022-08-12T10:14:35.517Z,28.19
2022-08-12T10:16:23.237Z,28.34
2022-08-12T10:17:14.740Z,28.47
2022-08-12T10:18:13.995Z,28.41
2022-08-12T10:19:37.049Z,28.41
2022-08-12T10:20:18.635Z,28.18
2022-08-12T10:21:19.161Z,28.1
2022-08-12T10:22:41.268Z,27.88
2022-08-12T10:23:18.780Z,27.85
2022-08-12T10:24:20.624Z,27.9
2022-08-12T10:26:36.305Z,27.81
2022-08-12T10:28:25.413Z,27.68
2022-08-12T10:29:03.392Z,27.53
2022-08-12T10:31:16.961Z,27.45
2022-08-12T10:32:57.173Z,27.22
2022-08-12T10:34:14.430Z,26.82
2022-08-12T10:34:56.973Z,26.67
2022-08-12T10:35:43.900Z,26.64
2022-08-12T10:36:52.392Z,26.66
2022-08-12T10:38:44.439Z,26.26
2022-08-12T10:40:22.946Z,26.16
2022-08-12T10:41:59.957Z,26.22
2022-08-12T10:42:35.715Z,26.1
2022-08-12T10:43:28.246Z,25.99
2022-08-12T10:44:31.512Z,25.78
2022-08-12T10:45:31.144Z,25.61
2022-08-12T10:46:32.016Z,25.39
2022-08-12T10:48:26.671Z,25.03
2022-08-12T10:50:56.561Z,25.01
2022-08-12T10:52:41.023Z,24.71
2022-08-12T10:53:53.137Z,24.82
2022-08-12T10:54:56.329Z,24.81
2022-08-12T10:56:02.732Z,24.74
2022-08-12T10:56:56.250Z,24.58
2022-08-12T10:58:33.513Z,24.81
2022-08-12T10:58:55.909Z,24.81
2022-08-12T11:01:49.483Z,24.22
2022-08-12T11:04:44.308Z,23.66
2022-08-12T11:08:42.655Z,23.4
2022-08-12T11:09:01.922Z,23.2
2022-08-12T11:10:31.938Z,23.17
2022-08-12T11:13:00.743Z,23.45
2022-08-12T11:13:48.540Z,23.45
2022-08-12T11:14:59.189Z,23.63
2022-08-12T11:16:29.957Z,23.89
2022-08-12T11:18:03.524Z,23.91
2022-08-12T11:18:31.825Z,23.99
2022-08-12T11:19:33.651Z,23.99
2022-08-12T11:20:37.106Z,23.91
2022-08-12T11:22:03.986Z,23.85
2022-08-12T11:23:36.754Z,23.71
2022-08-12T11:24:02.371Z,23.67
2022-08-12T11:25:00.881Z,23.67
2022-08-12T11:26:07.553Z,23.58
2022-08-12T11:27:01.742Z,23.69
2022-08-12T11:28:06.335Z,23.63
2022-08-12T11:29:23.254Z,23.55
2022-08-12T11:30:38.869Z,23.51
2022-08-12T11:32:03.187Z,23.69
2022-08-12T11:32:47.393Z,23.76
2022-08-12T11:34:55.242Z,24.03
2022-08-12T11:35:23.990Z,24.11
2022-08-12T11:36:22.588Z,24.19
2022-08-12T11:37:59.495Z,24.26
2022-08-12T11:38:26.035Z,24.09
2022-08-12T11:40:03.673Z,24.24
2022-08-12T11:40:20.448Z,24.11
2022-08-12T11:41:32.859Z,24.04
2022-08-12T11:42:33.123Z,23.92
2022-08-12T11:43:31.008Z,24.07
2022-08-12T11:45:17.423Z,24.32
2022-08-12T11:46:19.009Z,24.31
2022-08-12T11:47:15.962Z,24.25
2022-08-12T11:48:27.359Z,24.21
2022-08-12T11:49:32.726Z,24.41
2022-08-12T11:50:19.977Z,24.44
2022-08-12T11:51:16.000Z,24.61
2022-08-12T11:53:02.599Z,24.89
2022-08-12T11:54:15.323Z,25.06
2022-08-12T11:55:15.568Z,25.24
2022-08-12T11:56:12.434Z,25.31
2022-08-12T12:02:06.023Z,25.63
2022-08-12T12:02:57.271Z,25.55
2022-08-12T12:04:02.228Z,25.56
2022-08-12T12:04:58.930Z,25.59
2022-08-12T12:06:01.065Z,25.43
2022-08-12T12:07:11.128Z,25.25
2022-08-12T12:08:53.889Z,25.16
2022-08-12T12:09:17.135Z,25.22
2022-08-12T12:10:16.510Z,25.21
2022-08-12T12:11:18.340Z,25.3
2022-08-12T12:12:18.150Z,25.31
2022-08-12T12:14:18.027Z,25.66
2022-08-12T12:15:07.177Z,25.88
2022-08-12T12:16:06.058Z,25.99
2022-08-12T12:17:09.591Z,25.95
2022-08-12T12:18:03.057Z,25.93
2022-08-12T12:19:02.986Z,25.95
2022-08-12T12:20:03.390Z,26.04
2022-08-12T12:21:04.539Z,26.08
2022-08-12T12:22:04.733Z,26.29
2022-08-12T12:23:07.244Z,26.23
2022-08-12T12:24:28.634Z,26.39
2022-08-12T12:26:38.361Z,26.16
2022-08-12T12:27:07.035Z,26.16
2022-08-12T12:28:39.574Z,25.96
2022-08-12T12:30:30.854Z,25.73
2022-08-12T12:31:04.493Z,25.85
2022-08-12T12:32:30.934Z,25.78
2022-08-12T12:33:23.528Z,25.85
2022-08-12T12:34:37.335Z,25.85
2022-08-12T12:36:36.621Z,25.92
2022-08-12T12:38:18.699Z,26.01
2022-08-12T12:39:19.571Z,26.01
2022-08-12T12:40:20.119Z,25.98
2022-08-12T12:42:42.254Z,26.11
2022-08-12T12:43:14.305Z,26.24
2022-08-12T12:44:38.932Z,26.24
2022-08-12T12:45:33.871Z,26.33
2022-08-12T12:46:27.804Z,26.41
2022-08-12T12:47:37.367Z,26.42
2022-08-12T12:48:27.345Z,26.16
2022-08-12T12:49:31.956Z,26.15
2022-08-12T12:50:51.956Z,26.16
2022-08-12T12:52:37.230Z,26.3
2022-08-12T12:52:54.106Z,26.31
2022-08-12T12:54:20.044Z,26.46
2022-08-12T12:54:56.107Z,26.66
2022-08-12T12:55:58.662Z,26.76
2022-08-12T12:56:57.421Z,26.89
2022-08-12T12:58:06.741Z,27.19
2022-08-12T12:58:58.657Z,27.26
2022-08-12T13:00:31.854Z,27.35
2022-08-12T13:01:42.525Z,27.33
2022-08-12T13:02:37.391Z,27.22
2022-08-12T13:03:49.733Z,27.23
2022-08-12T13:04:40.549Z,27.26
2022-08-12T13:05:42.975Z,27.41
2022-08-12T13:06:36.121Z,27.28
2022-08-12T13:08:01.831Z,27.15
2022-08-12T13:08:41.428Z,27.01
2022-08-12T13:09:46.887Z,26.96
2022-08-12T13:10:57.245Z,26.91
2022-08-12T13:12:01.987Z,26.85
2022-08-12T13:12:58.332Z,26.85
2022-08-12T13:14:40.466Z,26.91
2022-08-12T13:15:50.893Z,27.13
2022-08-12T13:16:44.221Z,27.15
2022-08-12T13:18:08.708Z,27.03
2022-08-12T13:18:37.280Z,27.07
2022-08-12T13:19:50.462Z,27.1
2022-08-12T13:20:43.504Z,27.25
2022-08-12T13:21:50.177Z,27.26
2022-08-12T13:22:53.424Z,27.13
2022-08-12T13:23:50.870Z,26.93
2022-08-12T13:24:57.515Z,26.74
2022-08-12T13:25:53.841Z,26.67
2022-08-12T13:26:52.485Z,26.33
2022-08-12T13:27:54.176Z,25.88
2022-08-12T13:28:58.968Z,25.58
2022-08-12T13:30:00.907Z,25.56
2022-08-12T13:30:58.299Z,25.61
2022-08-12T13:32:37.100Z,25.91
2022-08-12T13:34:39.344Z,25.92
2022-08-12T13:36:15.471Z,25.81
2022-08-12T13:36:35.382Z,25.8
2022-08-12T13:38:03.705Z,25.71
2022-08-12T13:38:40.670Z,25.55
2022-08-12T13:39:38.710Z,25.63
2022-08-12T13:40:37.891Z,25.44
2022-08-12T13:41:38.802Z,25.41
2022-08-12T13:42:39.406Z,25.62
2022-08-12T13:43:48.607Z,25.77
2022-08-12T13:44:53.876Z,26.01
2022-08-12T13:45:50.395Z,26.23
2022-08-12T13:47:19.957Z,26.46
2022-08-12T13:47:54.638Z,26.63
2022-08-12T13:48:55.308Z,26.78
2022-08-12T13:50:05.774Z,27.01
2022-08-12T13:50:52.926Z,27.11
2022-08-12T13:51:54.598Z,27.25
2022-08-12T13:52:54.247Z,27.3
2022-08-12T13:54:17.103Z,27.19
2022-08-12T13:55:14.151Z,26.98
2022-08-12T13:56:14.590Z,26.74
2022-08-12T13:57:17.383Z,26.78
2022-08-12T13:58:19.087Z,26.73
2022-08-12T13:59:14.591Z,26.73
2022-08-12T14:00:16.868Z,26.78
2022-08-12T14:01:17.072Z,26.76
2022-08-12T14:02:17.798Z,26.73
2022-08-12T14:03:16.496Z,26.76
2022-08-12T14:04:32.982Z,26.88
2022-08-12T14:05:44.130Z,26.82
2022-08-12T14:06:38.195Z,26.79
2022-08-12T14:07:49.113Z,26.71
2022-08-12T14:08:43.308Z,26.7
2022-08-12T14:09:36.305Z,26.73
2022-08-12T14:10:34.722Z,26.66
2022-08-12T14:11:41.588Z,26.74
2022-08-12T14:12:35.254Z,26.67
2022-08-12T14:14:13.558Z,26.64
2022-08-12T14:15:03.971Z,26.6
2022-08-12T14:16:08.348Z,26.68
2022-08-12T14:17:08.201Z,26.73
2022-08-12T14:18:05.684Z,26.74
2022-08-12T14:19:23.062Z,26.6
2022-08-12T14:20:10.189Z,26.64
2022-08-12T14:21:09.935Z,26.63
2022-08-12T14:22:11.006Z,26.64
2022-08-12T14:24:09.740Z,26.74
2022-08-12T14:24:41.343Z,26.82
2022-08-12T14:25:41.303Z,26.92
2022-08-12T14:26:39.445Z,27
2022-08-12T14:28:10.331Z,27.23
2022-08-12T14:28:36.771Z,27.38
2022-08-12T14:30:29.091Z,27.47